Terminal Aerodrome Forecast
Issued by NWS

Home | Current Version | Previous Version | Text Only | Print | Product List | Glossary On
Versions: 1 2 3 4 5 6 7 8 9 10 11 12 13 14 15 16 17 18 19 20 21 22 23 24 25 26 27 28 29 30 31 32 33 34 35 36 37 38 39 40 41 42
000
FTUS43 KGRB 291900 AAA
TAFRHI
TAF AMD
KRHI 291904Z 2919/3018 32013G23KT P6SM OVC025
     FM300100 32009KT P6SM -SHSN OVC025
     FM300700 31005KT P6SM SCT020 BKN040
     FM301200 30003KT P6SM SCT020 SCT250
     FM301500 28005KT P6SM SCT020 BKN080=

USA.gov is the U.S. government's official web portal to all federal, state and local government web resources and services.